Jackson, Kentucky
Current Conditions -  °F | °C
As of 3:53 PM on Thursday 18 Dec 2014 (Local Time) from KJKL Reporting Station
Overcast Overcast  
Wind Chill: 33°   Ceiling: 7000
Heat Index: 33°   Visibility: 10mi
Dew Point: 23°   Wind: 0mph
Humidity: 66%   Direction: NA
Pressure: 30.18"   Gusts: NA
Location:  37.55°N, 83.38°W
Report Text: KJKL 182053Z AUTO 00000KT 10SM FEW023 OVC070 01/M05 A3018 RMK AO2 SLP229 T00061050 53001
Loading
Personal Weather Stations






























Interactive Weather Map New forecast layout! Learn more

10-Day Weather Forecast

Advertisements
Track Severe Weather on mobile